createdAt,value
2017-09-29T00:00:08.473Z,95.20
2017-09-29T00:02:37.004Z,95.20
2017-09-29T00:05:04.633Z,95.20
2017-09-29T00:07:32.199Z,95.20
2017-09-29T00:09:59.788Z,95.10
2017-09-29T00:12:27.366Z,95.10
2017-09-29T00:14:54.953Z,95.00
2017-09-29T00:17:23.275Z,95.10
2017-09-29T00:19:50.862Z,95.00
2017-09-29T00:22:18.437Z,95.10
2017-09-29T00:24:46.910Z,95.20
2017-09-29T00:27:15.304Z,95.30
2017-09-29T00:29:44.556Z,95.30
2017-09-29T00:32:12.194Z,95.30
2017-09-29T00:34:39.781Z,95.20
2017-09-29T00:37:07.373Z,95.20
2017-09-29T00:39:35.009Z,95.20
2017-09-29T00:42:02.633Z,95.20
2017-09-29T00:44:30.296Z,95.30
2017-09-29T00:46:57.887Z,95.30
2017-09-29T00:49:25.517Z,95.20
2017-09-29T00:51:53.190Z,95.20
2017-09-29T00:54:20.805Z,95.10
2017-09-29T00:56:48.395Z,95.00
2017-09-29T00:59:16.013Z,95.00
2017-09-29T01:01:43.961Z,95.20
2017-09-29T01:04:11.553Z,95.20
2017-09-29T01:06:39.167Z,95.20
2017-09-29T01:09:06.882Z,95.20
2017-09-29T01:11:35.245Z,95.40
2017-09-29T01:14:02.829Z,95.30
2017-09-29T01:16:31.208Z,95.40
2017-09-29T01:18:59.617Z,95.50
2017-09-29T01:21:27.875Z,95.40
2017-09-29T01:23:57.021Z,95.40
2017-09-29T01:26:24.654Z,95.40
2017-09-29T01:28:52.299Z,95.40
2017-09-29T01:31:19.917Z,95.40
2017-09-29T01:33:47.700Z,95.40
2017-09-29T01:36:15.290Z,95.70
2017-09-29T01:38:42.897Z,95.60
2017-09-29T01:41:11.425Z,95.60
2017-09-29T01:43:39.028Z,95.50
2017-09-29T01:46:06.633Z,95.60
2017-09-29T01:48:35.035Z,95.60
2017-09-29T01:51:02.650Z,95.60
2017-09-29T01:53:30.255Z,95.50
2017-09-29T01:55:57.843Z,95.50
2017-09-29T01:58:25.447Z,95.40
2017-09-29T02:00:53.799Z,95.50
2017-09-29T02:03:21.733Z,95.50
2017-09-29T02:05:49.332Z,95.40
2017-09-29T02:08:16.928Z,95.30
2017-09-29T02:10:45.316Z,95.40
2017-09-29T02:13:12.982Z,95.40
2017-09-29T02:15:40.603Z,95.30
2017-09-29T02:18:08.256Z,95.30
2017-09-29T02:20:36.644Z,95.30
2017-09-29T02:23:04.281Z,95.30
2017-09-29T02:25:31.926Z,95.30
2017-09-29T02:27:59.552Z,95.20
2017-09-29T02:30:27.944Z,95.20
2017-09-29T02:32:55.565Z,95.20
2017-09-29T02:35:23.165Z,95.20
2017-09-29T02:37:50.757Z,95.10
2017-09-29T02:40:18.380Z,95.20
2017-09-29T02:42:45.980Z,95.30
2017-09-29T02:45:13.591Z,95.30
2017-09-29T02:47:41.188Z,95.40
2017-09-29T02:50:08.767Z,95.30
2017-09-29T02:52:36.388Z,95.20
2017-09-29T02:55:04.484Z,95.10
2017-09-29T02:57:33.409Z,95.10
2017-09-29T03:00:02.224Z,95.10
2017-09-29T03:02:32.749Z,95.20
2017-09-29T03:05:03.447Z,95.10
2017-09-29T03:07:31.830Z,95.10
2017-09-29T03:09:59.458Z,95.10
2017-09-29T03:12:27.055Z,94.90
2017-09-29T03:14:54.696Z,95.00
2017-09-29T03:17:22.312Z,95.00
2017-09-29T03:19:50.678Z,95.10
2017-09-29T03:22:19.068Z,95.30
2017-09-29T03:24:47.431Z,95.40
2017-09-29T03:27:15.059Z,95.40
2017-09-29T03:29:42.688Z,95.70
2017-09-29T03:32:10.246Z,95.80
2017-09-29T03:34:37.821Z,96.00
2017-09-29T03:37:05.438Z,96.10
2017-09-29T03:39:33.006Z,96.20
2017-09-29T03:42:00.592Z,96.20
2017-09-29T03:44:28.176Z,96.40
2017-09-29T03:46:55.753Z,96.50
2017-09-29T03:49:23.341Z,96.60
2017-09-29T03:51:52.426Z,96.60
2017-09-29T03:54:20.520Z,96.50
2017-09-29T03:56:50.250Z,96.40
2017-09-29T03:59:19.220Z,96.40
2017-09-29T04:01:47.591Z,96.40
2017-09-29T04:04:15.944Z,96.30
2017-09-29T04:06:43.576Z,96.30
2017-09-29T04:09:11.141Z,96.20
2017-09-29T04:11:38.745Z,96.20
2017-09-29T04:14:06.400Z,96.20
2017-09-29T04:16:34.000Z,96.00
2017-09-29T04:19:01.602Z,96.10
2017-09-29T04:21:29.208Z,96.20
2017-09-29T04:23:57.576Z,96.10
2017-09-29T04:26:25.954Z,96.10
2017-09-29T04:28:54.312Z,96.10
2017-09-29T04:31:21.873Z,96.10
2017-09-29T04:33:49.802Z,96.00
2017-09-29T04:36:17.380Z,96.30
2017-09-29T04:38:44.970Z,95.90
2017-09-29T04:41:12.599Z,96.10
2017-09-29T04:43:40.211Z,96.20
2017-09-29T04:46:08.559Z,96.20
2017-09-29T04:48:36.125Z,96.20
2017-09-29T04:51:03.732Z,96.20
2017-09-29T04:53:31.316Z,96.20
2017-09-29T04:55:58.905Z,96.40
2017-09-29T04:58:26.509Z,96.40
2017-09-29T05:00:54.201Z,96.20
2017-09-29T05:03:21.786Z,96.30
2017-09-29T05:05:49.423Z,96.30
2017-09-29T05:08:17.059Z,96.40
2017-09-29T05:10:44.610Z,96.20
2017-09-29T05:13:13.172Z,96.30
2017-09-29T05:15:41.809Z,96.30
2017-09-29T05:18:09.407Z,96.30
2017-09-29T05:20:37.832Z,96.40
2017-09-29T05:23:05.410Z,96.40
2017-09-29T05:25:32.981Z,96.40
2017-09-29T05:28:00.592Z,96.40
2017-09-29T05:30:28.257Z,96.40
2017-09-29T05:32:55.826Z,96.40
2017-09-29T05:35:23.450Z,96.40
2017-09-29T05:37:51.833Z,96.50
2017-09-29T05:40:19.474Z,96.50
2017-09-29T05:42:47.071Z,96.50
2017-09-29T05:45:15.395Z,96.40
2017-09-29T05:47:42.984Z,96.30
2017-09-29T05:50:10.599Z,96.20
2017-09-29T05:52:38.188Z,96.20
2017-09-29T05:55:05.759Z,96.30
2017-09-29T05:57:33.394Z,96.60
2017-09-29T06:00:00.969Z,96.50
2017-09-29T06:02:28.582Z,96.50
2017-09-29T06:04:56.135Z,96.60
2017-09-29T06:07:23.707Z,96.60
2017-09-29T06:09:52.240Z,96.50
2017-09-29T06:12:19.902Z,96.70
2017-09-29T06:14:47.531Z,96.80
2017-09-29T06:17:15.131Z,96.80
2017-09-29T06:19:43.477Z,96.90
2017-09-29T06:22:11.058Z,96.80
2017-09-29T06:24:38.633Z,96.70
2017-09-29T06:27:06.978Z,96.80
2017-09-29T06:29:35.390Z,96.40
2017-09-29T06:32:03.001Z,96.40
2017-09-29T06:34:30.602Z,96.30
2017-09-29T06:36:58.249Z,96.00
2017-09-29T06:39:25.862Z,96.30
2017-09-29T06:41:53.484Z,96.30
2017-09-29T06:44:21.051Z,96.20
2017-09-29T06:46:48.666Z,96.20
2017-09-29T06:49:16.286Z,96.20
2017-09-29T06:51:44.654Z,96.20
2017-09-29T06:54:13.849Z,96.20
2017-09-29T06:56:41.800Z,96.20
2017-09-29T06:59:09.378Z,96.10
2017-09-29T07:01:37.112Z,96.00
2017-09-29T07:04:04.724Z,96.20
2017-09-29T07:06:33.103Z,95.90
2017-09-29T07:09:01.402Z,95.90
2017-09-29T07:11:29.040Z,95.90
2017-09-29T07:13:57.459Z,95.90
2017-09-29T07:16:25.065Z,95.90
2017-09-29T07:18:53.915Z,95.70
2017-09-29T07:21:21.572Z,95.70
2017-09-29T07:23:49.261Z,95.70
2017-09-29T07:26:18.750Z,95.60
2017-09-29T07:28:47.529Z,95.70
2017-09-29T07:31:16.867Z,95.70
2017-09-29T07:33:44.477Z,95.70
2017-09-29T07:36:12.096Z,95.70
2017-09-29T07:38:39.706Z,95.50
2017-09-29T07:41:08.274Z,95.30
2017-09-29T07:43:35.903Z,95.50
2017-09-29T07:46:03.507Z,95.40
2017-09-29T07:48:31.269Z,95.30
2017-09-29T07:50:58.893Z,95.10
2017-09-29T07:53:26.502Z,95.00
2017-09-29T07:55:54.133Z,95.00
2017-09-29T07:58:21.725Z,94.80
2017-09-29T08:00:49.331Z,94.80
2017-09-29T08:03:17.728Z,95.00
2017-09-29T08:05:46.071Z,94.80
2017-09-29T08:08:13.639Z,94.70
2017-09-29T08:10:41.242Z,94.80
2017-09-29T08:13:08.819Z,94.70
2017-09-29T08:15:36.812Z,95.00
2017-09-29T08:18:05.394Z,95.00
2017-09-29T08:20:33.017Z,95.20
2017-09-29T08:23:00.996Z,94.90
2017-09-29T08:25:28.558Z,94.80
2017-09-29T08:27:56.137Z,94.80
2017-09-29T08:30:24.465Z,94.40
2017-09-29T08:32:52.867Z,94.30
2017-09-29T08:35:20.742Z,94.30
2017-09-29T08:37:48.313Z,94.50
2017-09-29T08:40:15.915Z,94.00
2017-09-29T08:42:43.538Z,93.90
2017-09-29T08:45:11.149Z,94.00
2017-09-29T08:47:38.761Z,93.80
2017-09-29T08:50:06.419Z,93.80
2017-09-29T08:52:33.987Z,93.60
2017-09-29T08:55:01.576Z,93.70
2017-09-29T08:57:29.330Z,93.60
2017-09-29T08:59:56.912Z,93.40
2017-09-29T09:02:24.485Z,93.10
2017-09-29T09:04:52.100Z,93.50
2017-09-29T09:07:19.703Z,93.20
2017-09-29T09:09:48.118Z,92.50
2017-09-29T09:12:15.690Z,92.50
2017-09-29T09:14:43.535Z,92.50
2017-09-29T09:17:11.148Z,92.20
2017-09-29T09:19:39.509Z,91.50
2017-09-29T09:22:07.073Z,91.40
2017-09-29T09:24:34.680Z,90.90
2017-09-29T09:27:02.290Z,91.00
2017-09-29T09:29:29.857Z,91.20
2017-09-29T09:31:57.487Z,90.60
2017-09-29T09:34:25.098Z,90.70
2017-09-29T09:36:53.019Z,90.40
2017-09-29T09:39:20.658Z,90.20
2017-09-29T09:41:48.236Z,90.00
2017-09-29T09:44:15.852Z,90.20
2017-09-29T09:46:44.229Z,90.20
2017-09-29T09:49:11.810Z,90.20
2017-09-29T09:51:39.400Z,90.40
2017-09-29T09:54:07.037Z,90.10
2017-09-29T09:56:34.593Z,89.20
2017-09-29T09:59:02.196Z,90.00
2017-09-29T10:01:30.254Z,90.00
2017-09-29T10:03:57.864Z,90.10
2017-09-29T10:06:26.207Z,88.30
2017-09-29T10:08:53.819Z,88.30
2017-09-29T10:11:22.171Z,89.30
2017-09-29T10:13:49.780Z,89.20
2017-09-29T10:16:17.375Z,89.70
2017-09-29T10:18:45.016Z,89.50
2017-09-29T10:21:12.602Z,89.60
2017-09-29T10:23:40.230Z,89.50
2017-09-29T10:26:07.804Z,89.30
2017-09-29T10:28:35.408Z,88.80
2017-09-29T10:31:03.822Z,88.60
2017-09-29T10:33:31.487Z,88.60
2017-09-29T10:35:59.087Z,87.10
2017-09-29T10:38:26.720Z,85.40
2017-09-29T10:40:54.312Z,86.90
2017-09-29T10:43:21.917Z,86.70
2017-09-29T10:45:49.498Z,87.80
2017-09-29T10:48:17.107Z,87.60
2017-09-29T10:50:45.458Z,85.10
2017-09-29T10:53:13.102Z,84.90
2017-09-29T10:55:40.677Z,85.00
2017-09-29T10:58:08.429Z,84.40
2017-09-29T11:00:36.065Z,84.10
2017-09-29T11:03:03.701Z,84.50
2017-09-29T11:05:32.448Z,83.80
2017-09-29T11:08:00.187Z,83.80
2017-09-29T11:10:27.773Z,83.30
2017-09-29T11:12:55.362Z,83.70
2017-09-29T11:15:22.970Z,84.20
2017-09-29T11:17:50.632Z,83.70
2017-09-29T11:20:18.212Z,83.00
2017-09-29T11:22:45.822Z,82.30
2017-09-29T11:25:14.152Z,82.40
2017-09-29T11:27:41.782Z,82.40
2017-09-29T11:30:09.475Z,80.70
2017-09-29T11:32:37.079Z,81.60
2017-09-29T11:35:05.570Z,80.90
2017-09-29T11:37:33.210Z,80.90
2017-09-29T11:40:01.005Z,80.20
2017-09-29T11:42:28.709Z,80.10
2017-09-29T11:44:56.289Z,80.40
2017-09-29T11:47:23.865Z,80.60
2017-09-29T11:49:52.856Z,81.10
2017-09-29T11:52:21.245Z,79.90
2017-09-29T11:54:48.826Z,79.80
2017-09-29T11:57:16.411Z,79.80
2017-09-29T11:59:44.045Z,79.40
2017-09-29T12:02:11.650Z,78.80
2017-09-29T12:04:39.234Z,79.00
2017-09-29T12:07:07.723Z,78.90
2017-09-29T12:09:36.102Z,78.70
2017-09-29T12:12:04.580Z,79.30
2017-09-29T12:14:32.926Z,79.90
2017-09-29T12:17:00.512Z,79.90
2017-09-29T12:19:28.118Z,80.00
2017-09-29T12:21:55.710Z,79.60
2017-09-29T12:24:23.331Z,79.10
2017-09-29T12:26:50.925Z,79.10
2017-09-29T12:29:18.534Z,78.90
2017-09-29T12:31:46.967Z,78.50
2017-09-29T12:34:14.570Z,78.50
2017-09-29T12:36:43.084Z,78.20
2017-09-29T12:39:10.729Z,78.20
2017-09-29T12:41:38.299Z,77.30
2017-09-29T12:44:05.890Z,77.60
2017-09-29T12:46:33.524Z,76.90
2017-09-29T12:49:01.139Z,76.30
2017-09-29T12:51:28.712Z,76.40
2017-09-29T12:53:56.343Z,75.90
2017-09-29T12:56:23.940Z,76.30
2017-09-29T12:58:51.594Z,76.50
2017-09-29T13:01:19.233Z,76.40
2017-09-29T13:03:46.829Z,74.90
2017-09-29T13:06:14.482Z,74.10
2017-09-29T13:08:42.165Z,73.90
2017-09-29T13:11:09.786Z,74.30
2017-09-29T13:13:37.463Z,74.20
2017-09-29T13:16:05.874Z,68.60
2017-09-29T13:18:33.653Z,69.40
2017-09-29T13:21:01.233Z,66.70
2017-09-29T13:23:28.898Z,67.10
2017-09-29T13:25:56.533Z,67.00
2017-09-29T13:28:24.198Z,66.90
2017-09-29T13:30:52.455Z,66.50
2017-09-29T13:33:20.068Z,66.10
2017-09-29T13:35:48.109Z,66.00
2017-09-29T13:38:17.105Z,64.30
2017-09-29T13:40:44.710Z,64.00
2017-09-29T13:43:13.550Z,65.50
2017-09-29T13:45:41.541Z,65.50
2017-09-29T13:48:11.088Z,65.00
2017-09-29T13:50:40.104Z,65.00
2017-09-29T13:53:08.002Z,65.00
2017-09-29T13:55:36.041Z,64.80
2017-09-29T13:58:03.813Z,65.20
2017-09-29T14:00:31.477Z,65.00
2017-09-29T14:02:59.209Z,64.60
2017-09-29T14:05:26.984Z,64.50
2017-09-29T14:07:54.668Z,64.50
2017-09-29T14:10:22.482Z,64.20
2017-09-29T14:12:50.160Z,63.80
2017-09-29T14:15:18.708Z,64.30
2017-09-29T14:17:46.373Z,64.20
2017-09-29T14:20:14.242Z,65.70
2017-09-29T14:22:42.302Z,65.50
2017-09-29T14:25:10.030Z,66.70
2017-09-29T14:27:37.729Z,66.60
2017-09-29T14:30:05.657Z,65.80
2017-09-29T14:32:33.578Z,66.30
2017-09-29T14:35:02.061Z,66.10
2017-09-29T14:37:30.706Z,66.60
2017-09-29T14:39:58.811Z,66.50
2017-09-29T14:42:26.572Z,66.30
2017-09-29T14:44:54.271Z,66.70
2017-09-29T14:47:22.235Z,67.30
2017-09-29T14:49:50.251Z,67.00
2017-09-29T14:52:17.974Z,66.40
2017-09-29T14:54:45.792Z,67.20
2017-09-29T14:57:13.562Z,67.90
2017-09-29T14:59:41.719Z,67.80
2017-09-29T15:02:10.397Z,67.50
2017-09-29T15:04:38.016Z,66.30
2017-09-29T15:07:05.601Z,66.20
2017-09-29T15:09:33.178Z,66.10
2017-09-29T15:12:00.784Z,66.20
2017-09-29T15:14:28.334Z,66.60
2017-09-29T15:16:55.896Z,66.50
2017-09-29T15:19:24.077Z,66.70
2017-09-29T15:21:51.683Z,67.00
2017-09-29T15:24:19.296Z,66.90
2017-09-29T15:26:46.911Z,67.10
2017-09-29T15:29:14.483Z,67.00
2017-09-29T15:31:43.506Z,67.60
2017-09-29T15:34:11.089Z,67.30
2017-09-29T15:36:38.693Z,67.60
2017-09-29T15:39:06.361Z,67.40
2017-09-29T15:41:33.969Z,67.80
2017-09-29T15:44:01.620Z,68.10
2017-09-29T15:46:29.247Z,68.40
2017-09-29T15:48:56.860Z,68.80
2017-09-29T15:51:24.900Z,69.20
2017-09-29T15:53:52.485Z,70.60
2017-09-29T15:56:20.139Z,69.80
2017-09-29T15:58:47.712Z,70.30
2017-09-29T16:01:15.268Z,70.80
2017-09-29T16:03:43.679Z,72.00
2017-09-29T16:06:11.364Z,71.50
2017-09-29T16:08:38.976Z,71.70
2017-09-29T16:11:06.557Z,72.30
2017-09-29T16:13:34.909Z,73.20
2017-09-29T16:16:02.508Z,73.20
2017-09-29T16:18:30.132Z,73.80
2017-09-29T16:20:58.529Z,73.90
2017-09-29T16:23:27.134Z,74.50
2017-09-29T16:25:54.997Z,74.50
2017-09-29T16:28:22.600Z,74.90
2017-09-29T16:30:50.232Z,75.10
2017-09-29T16:33:17.869Z,75.80
2017-09-29T16:35:45.461Z,76.10
2017-09-29T16:38:13.062Z,76.40
2017-09-29T16:40:40.697Z,76.30
2017-09-29T16:43:08.298Z,76.30
2017-09-29T16:45:35.911Z,76.70
2017-09-29T16:48:03.583Z,77.30
2017-09-29T16:50:31.184Z,77.70
2017-09-29T16:52:58.840Z,78.10
2017-09-29T16:55:26.395Z,78.50
2017-09-29T16:57:53.987Z,78.70
2017-09-29T17:00:21.562Z,78.60
2017-09-29T17:02:49.135Z,78.90
2017-09-29T17:05:16.720Z,79.60
2017-09-29T17:07:44.395Z,80.00
2017-09-29T17:10:11.960Z,80.50
2017-09-29T17:12:39.610Z,80.60
2017-09-29T17:15:07.198Z,80.70
2017-09-29T17:17:35.568Z,81.40
2017-09-29T17:20:03.236Z,81.40
2017-09-29T17:22:31.649Z,81.70
2017-09-29T17:24:59.273Z,81.50
2017-09-29T17:27:27.665Z,82.70
2017-09-29T17:29:56.017Z,82.60
2017-09-29T17:32:23.599Z,82.60
2017-09-29T17:34:52.697Z,82.90
2017-09-29T17:37:20.264Z,82.90
2017-09-29T17:39:48.650Z,82.90
2017-09-29T17:42:16.235Z,82.70
2017-09-29T17:44:43.907Z,82.90
2017-09-29T17:47:11.485Z,83.90
2017-09-29T17:49:39.084Z,83.40
2017-09-29T17:52:06.666Z,83.50
2017-09-29T17:54:34.270Z,83.60
2017-09-29T17:57:02.345Z,83.60
2017-09-29T17:59:29.897Z,84.00
2017-09-29T18:01:57.568Z,83.70
2017-09-29T18:04:25.136Z,83.50
2017-09-29T18:06:52.730Z,83.60
2017-09-29T18:09:20.405Z,83.60
2017-09-29T18:11:48.040Z,83.50
2017-09-29T18:14:15.662Z,83.60
2017-09-29T18:16:43.262Z,83.60
2017-09-29T18:19:13.125Z,83.60
2017-09-29T18:21:40.715Z,83.50
2017-09-29T18:24:09.089Z,84.00
2017-09-29T18:26:36.668Z,83.80
2017-09-29T18:29:05.054Z,84.00
2017-09-29T18:31:33.424Z,84.00
2017-09-29T18:34:01.991Z,84.00
2017-09-29T18:36:29.585Z,84.00
2017-09-29T18:38:57.164Z,84.00
2017-09-29T18:41:29.048Z,84.20
2017-09-29T18:43:56.713Z,84.20
2017-09-29T18:46:39.296Z,84.40
2017-09-29T18:49:07.691Z,84.20
2017-09-29T18:51:35.348Z,84.60
2017-09-29T18:54:02.947Z,84.70
2017-09-29T18:56:30.561Z,84.80
2017-09-29T18:58:58.132Z,85.00
2017-09-29T19:01:25.708Z,85.10
2017-09-29T19:03:54.148Z,85.10
2017-09-29T19:06:21.797Z,85.20
2017-09-29T19:08:50.165Z,85.40
2017-09-29T19:11:18.565Z,86.00
2017-09-29T19:13:46.167Z,86.00
2017-09-29T19:16:13.805Z,86.50
2017-09-29T19:18:41.500Z,86.40
2017-09-29T19:21:09.885Z,86.60
2017-09-29T19:23:37.460Z,86.50
2017-09-29T19:26:05.061Z,87.60
2017-09-29T19:28:32.652Z,86.90
2017-09-29T19:31:00.276Z,86.90
2017-09-29T19:33:27.862Z,87.20
2017-09-29T19:35:55.432Z,87.10
2017-09-29T19:38:23.127Z,87.20
2017-09-29T19:40:51.479Z,88.00
2017-09-29T19:43:19.070Z,87.20
2017-09-29T19:45:47.443Z,87.00
2017-09-29T19:48:15.759Z,86.60
2017-09-29T19:50:43.334Z,86.60
2017-09-29T19:53:10.954Z,86.40
2017-09-29T19:55:39.276Z,86.90
2017-09-29T19:58:06.811Z,86.90
2017-09-29T20:00:34.432Z,86.80
2017-09-29T20:03:02.091Z,86.90
2017-09-29T20:05:29.689Z,88.10
2017-09-29T20:07:57.332Z,88.40
2017-09-29T20:10:25.686Z,88.80
2017-09-29T20:12:53.257Z,88.80
2017-09-29T20:15:22.528Z,90.20
2017-09-29T20:17:50.083Z,90.20
2017-09-29T20:20:17.675Z,90.40
2017-09-29T20:22:46.072Z,91.20
2017-09-29T20:25:13.681Z,91.10
2017-09-29T20:27:41.261Z,91.10
2017-09-29T20:30:08.930Z,91.40
2017-09-29T20:32:37.285Z,91.80
2017-09-29T20:35:05.630Z,91.70
2017-09-29T20:37:33.238Z,91.70
2017-09-29T20:40:00.837Z,91.50
2017-09-29T20:42:28.462Z,91.60
2017-09-29T20:44:56.053Z,91.60
2017-09-29T20:47:24.413Z,91.90
2017-09-29T20:49:52.782Z,91.60
2017-09-29T20:52:20.336Z,91.60
2017-09-29T20:54:47.942Z,91.90
2017-09-29T20:57:15.527Z,91.90
2017-09-29T20:59:43.687Z,91.80
2017-09-29T21:02:11.308Z,91.90
2017-09-29T21:04:38.931Z,91.80
2017-09-29T21:07:06.499Z,92.00
2017-09-29T21:09:34.091Z,92.10
2017-09-29T21:12:01.700Z,91.90
2017-09-29T21:14:29.292Z,92.00
2017-09-29T21:16:57.651Z,92.00
2017-09-29T21:19:25.256Z,92.10
2017-09-29T21:21:53.576Z,92.20
2017-09-29T21:24:21.151Z,92.10
2017-09-29T21:26:48.761Z,92.00
2017-09-29T21:29:17.100Z,92.20
2017-09-29T21:31:44.721Z,92.20
2017-09-29T21:34:12.766Z,92.30
2017-09-29T21:36:41.109Z,92.60
2017-09-29T21:39:08.738Z,92.60
2017-09-29T21:41:36.584Z,92.60
2017-09-29T21:44:04.909Z,92.80
2017-09-29T21:46:32.524Z,92.80
2017-09-29T21:49:00.123Z,92.70
2017-09-29T21:51:27.719Z,92.60
2017-09-29T21:53:55.316Z,92.80
2017-09-29T21:56:22.930Z,92.80
2017-09-29T21:58:50.519Z,92.90
2017-09-29T22:01:18.906Z,92.80
2017-09-29T22:03:46.513Z,92.80
2017-09-29T22:06:14.126Z,92.80
2017-09-29T22:08:41.785Z,92.90
2017-09-29T22:11:10.278Z,92.80
2017-09-29T22:13:37.866Z,92.70
2017-09-29T22:16:05.442Z,92.70
2017-09-29T22:18:33.088Z,92.50
2017-09-29T22:21:00.654Z,92.70
2017-09-29T22:23:28.217Z,92.60
2017-09-29T22:25:55.850Z,92.70
2017-09-29T22:28:23.411Z,92.60
2017-09-29T22:30:50.999Z,92.60
2017-09-29T22:33:18.570Z,92.40
2017-09-29T22:35:46.215Z,92.40
2017-09-29T22:38:13.872Z,92.40
2017-09-29T22:40:41.554Z,92.40
2017-09-29T22:43:09.893Z,92.30
2017-09-29T22:45:37.453Z,92.30
2017-09-29T22:48:05.055Z,92.40
2017-09-29T22:50:33.419Z,92.40
2017-09-29T22:53:01.001Z,92.30
2017-09-29T22:55:28.609Z,92.40
2017-09-29T22:57:56.170Z,92.30
2017-09-29T23:00:23.729Z,92.30
2017-09-29T23:02:51.316Z,92.40
2017-09-29T23:05:18.876Z,92.40
2017-09-29T23:07:46.866Z,92.20
2017-09-29T23:10:14.486Z,92.20
2017-09-29T23:12:42.076Z,92.20
2017-09-29T23:15:10.424Z,92.60
2017-09-29T23:17:38.629Z,92.60
2017-09-29T23:20:06.997Z,92.60
2017-09-29T23:22:34.578Z,92.60
2017-09-29T23:25:02.125Z,93.10
2017-09-29T23:27:30.465Z,92.80
2017-09-29T23:29:58.065Z,92.80
2017-09-29T23:32:26.396Z,93.00
2017-09-29T23:34:53.951Z,93.00
2017-09-29T23:37:21.569Z,92.90
2017-09-29T23:39:49.886Z,93.00
2017-09-29T23:42:17.471Z,93.10
2017-09-29T23:44:45.077Z,93.10
2017-09-29T23:47:12.649Z,93.30
2017-09-29T23:49:40.198Z,93.30
2017-09-29T23:52:07.787Z,93.30
2017-09-29T23:54:35.344Z,93.30
2017-09-29T23:57:02.920Z,93.40
2017-09-29T23:59:30.572Z,93.40
